sensor_id;sensor_type;location;lat;lon;timestamp;P1;durP1;ratioP1;P2;durP2;ratioP2
6376;SDS011;3221;48.858;10.128;2023-07-29T00:00:00;1.60;;;1.50;;
6376;SDS011;3221;48.858;10.128;2023-07-29T00:02:37;3.17;;;1.90;;
6376;SDS011;3221;48.858;10.128;2023-07-29T00:05:04;1.67;;;1.57;;
6376;SDS011;3221;48.858;10.128;2023-07-29T00:07:31;1.87;;;1.47;;
6376;SDS011;3221;48.858;10.128;2023-07-29T00:09:58;2.10;;;1.30;;
6376;SDS011;3221;48.858;10.128;2023-07-29T00:12:27;2.57;;;1.20;;
6376;SDS011;3221;48.858;10.128;2023-07-29T00:14:54;2.47;;;1.33;;
6376;SDS011;3221;48.858;10.128;2023-07-29T00:17:21;1.63;;;1.30;;
6376;SDS011;3221;48.858;10.128;2023-07-29T00:19:49;2.37;;;1.43;;
6376;SDS011;3221;48.858;10.128;2023-07-29T00:22:16;1.50;;;1.40;;
6376;SDS011;3221;48.858;10.128;2023-07-29T00:24:43;1.53;;;1.30;;
6376;SDS011;3221;48.858;10.128;2023-07-29T00:27:11;2.73;;;1.17;;
6376;SDS011;3221;48.858;10.128;2023-07-29T00:29:38;6.83;;;1.20;;
6376;SDS011;3221;48.858;10.128;2023-07-29T00:32:05;1.20;;;1.17;;
6376;SDS011;3221;48.858;10.128;2023-07-29T00:34:32;1.73;;;1.27;;
6376;SDS011;3221;48.858;10.128;2023-07-29T00:36:59;1.10;;;1.00;;
6376;SDS011;3221;48.858;10.128;2023-07-29T00:39:26;2.00;;;1.17;;
6376;SDS011;3221;48.858;10.128;2023-07-29T00:41:54;2.40;;;1.20;;
6376;SDS011;3221;48.858;10.128;2023-07-29T00:44:22;1.77;;;1.00;;
6376;SDS011;3221;48.858;10.128;2023-07-29T00:46:52;1.40;;;1.10;;
6376;SDS011;3221;48.858;10.128;2023-07-29T00:49:21;1.90;;;1.20;;
6376;SDS011;3221;48.858;10.128;2023-07-29T00:51:48;2.53;;;1.20;;
6376;SDS011;3221;48.858;10.128;2023-07-29T00:54:15;3.20;;;1.30;;
6376;SDS011;3221;48.858;10.128;2023-07-29T00:56:44;1.43;;;1.27;;
6376;SDS011;3221;48.858;10.128;2023-07-29T00:59:11;1.27;;;1.03;;
6376;SDS011;3221;48.858;10.128;2023-07-29T01:01:39;2.60;;;1.00;;
6376;SDS011;3221;48.858;10.128;2023-07-29T01:04:09;2.27;;;1.00;;
6376;SDS011;3221;48.858;10.128;2023-07-29T01:09:35;1.53;;;1.00;;
6376;SDS011;3221;48.858;10.128;2023-07-29T01:12:28;2.23;;;1.00;;
6376;SDS011;3221;48.858;10.128;2023-07-29T01:17:48;1.60;;;1.13;;
6376;SDS011;3221;48.858;10.128;2023-07-29T01:20:20;1.10;;;1.00;;
6376;SDS011;3221;48.858;10.128;2023-07-29T01:22:48;1.20;;;1.10;;
6376;SDS011;3221;48.858;10.128;2023-07-29T01:25:16;1.53;;;0.93;;
6376;SDS011;3221;48.858;10.128;2023-07-29T01:27:44;1.50;;;1.00;;
6376;SDS011;3221;48.858;10.128;2023-07-29T01:30:12;1.00;;;1.00;;
6376;SDS011;3221;48.858;10.128;2023-07-29T01:32:48;1.20;;;1.03;;
6376;SDS011;3221;48.858;10.128;2023-07-29T01:38:18;0.90;;;0.83;;
6376;SDS011;3221;48.858;10.128;2023-07-29T01:40:50;1.07;;;1.00;;
6376;SDS011;3221;48.858;10.128;2023-07-29T01:43:19;2.23;;;1.20;;
6376;SDS011;3221;48.858;10.128;2023-07-29T01:45:52;1.70;;;0.93;;
6376;SDS011;3221;48.858;10.128;2023-07-29T01:48:20;1.77;;;1.20;;
6376;SDS011;3221;48.858;10.128;2023-07-29T01:50:50;1.53;;;1.10;;
6376;SDS011;3221;48.858;10.128;2023-07-29T01:53:17;2.40;;;1.10;;
6376;SDS011;3221;48.858;10.128;2023-07-29T01:55:45;1.37;;;0.93;;
6376;SDS011;3221;48.858;10.128;2023-07-29T02:34:43;3.37;;;1.20;;
6376;SDS011;3221;48.858;10.128;2023-07-29T02:37:11;2.37;;;1.40;;
6376;SDS011;3221;48.858;10.128;2023-07-29T02:39:38;1.30;;;1.20;;
6376;SDS011;3221;48.858;10.128;2023-07-29T02:42:06;1.87;;;1.00;;
6376;SDS011;3221;48.858;10.128;2023-07-29T02:44:33;3.60;;;1.40;;
6376;SDS011;3221;48.858;10.128;2023-07-29T02:47:00;2.10;;;1.50;;
6376;SDS011;3221;48.858;10.128;2023-07-29T02:49:27;1.80;;;1.27;;
6376;SDS011;3221;48.858;10.128;2023-07-29T02:51:55;1.53;;;1.43;;
6376;SDS011;3221;48.858;10.128;2023-07-29T02:54:22;1.90;;;1.30;;
6376;SDS011;3221;48.858;10.128;2023-07-29T02:56:49;1.57;;;1.37;;
6376;SDS011;3221;48.858;10.128;2023-07-29T02:59:16;3.30;;;1.40;;
6376;SDS011;3221;48.858;10.128;2023-07-29T03:01:44;5.53;;;1.63;;
6376;SDS011;3221;48.858;10.128;2023-07-29T03:04:11;1.50;;;1.40;;
6376;SDS011;3221;48.858;10.128;2023-07-29T03:06:41;1.40;;;1.30;;
6376;SDS011;3221;48.858;10.128;2023-07-29T03:09:09;2.73;;;1.40;;
6376;SDS011;3221;48.858;10.128;2023-07-29T03:11:36;2.13;;;1.50;;
6376;SDS011;3221;48.858;10.128;2023-07-29T03:14:03;1.50;;;1.40;;
6376;SDS011;3221;48.858;10.128;2023-07-29T03:16:30;2.33;;;1.40;;
6376;SDS011;3221;48.858;10.128;2023-07-29T03:18:59;2.93;;;1.50;;
6376;SDS011;3221;48.858;10.128;2023-07-29T03:21:27;2.87;;;1.60;;
6376;SDS011;3221;48.858;10.128;2023-07-29T03:23:54;2.60;;;1.43;;
6376;SDS011;3221;48.858;10.128;2023-07-29T03:26:21;1.73;;;1.30;;
6376;SDS011;3221;48.858;10.128;2023-07-29T03:28:48;2.53;;;1.50;;
6376;SDS011;3221;48.858;10.128;2023-07-29T03:31:15;3.07;;;1.67;;
6376;SDS011;3221;48.858;10.128;2023-07-29T03:33:42;1.80;;;1.60;;
6376;SDS011;3221;48.858;10.128;2023-07-29T03:36:09;2.93;;;1.57;;
6376;SDS011;3221;48.858;10.128;2023-07-29T03:38:36;3.30;;;1.63;;
6376;SDS011;3221;48.858;10.128;2023-07-29T03:41:08;1.97;;;1.60;;
6376;SDS011;3221;48.858;10.128;2023-07-29T03:43:35;2.40;;;1.70;;
6376;SDS011;3221;48.858;10.128;2023-07-29T03:46:02;2.10;;;1.40;;
6376;SDS011;3221;48.858;10.128;2023-07-29T03:48:29;3.80;;;1.50;;
6376;SDS011;3221;48.858;10.128;2023-07-29T03:50:58;2.27;;;1.43;;
6376;SDS011;3221;48.858;10.128;2023-07-29T03:53:25;2.77;;;1.60;;
6376;SDS011;3221;48.858;10.128;2023-07-29T03:55:52;3.77;;;1.63;;
6376;SDS011;3221;48.858;10.128;2023-07-29T03:58:19;4.13;;;1.70;;
6376;SDS011;3221;48.858;10.128;2023-07-29T04:00:46;2.03;;;1.53;;
6376;SDS011;3221;48.858;10.128;2023-07-29T04:03:13;4.57;;;1.80;;
6376;SDS011;3221;48.858;10.128;2023-07-29T04:05:41;3.10;;;1.30;;
6376;SDS011;3221;48.858;10.128;2023-07-29T04:08:08;1.47;;;1.37;;
6376;SDS011;3221;48.858;10.128;2023-07-29T04:10:35;2.30;;;1.50;;
6376;SDS011;3221;48.858;10.128;2023-07-29T04:13:02;1.50;;;1.40;;
6376;SDS011;3221;48.858;10.128;2023-07-29T04:15:29;1.33;;;1.20;;
6376;SDS011;3221;48.858;10.128;2023-07-29T04:17:56;1.87;;;1.30;;
6376;SDS011;3221;48.858;10.128;2023-07-29T04:20:23;4.37;;;1.60;;
6376;SDS011;3221;48.858;10.128;2023-07-29T04:22:51;1.77;;;1.40;;
6376;SDS011;3221;48.858;10.128;2023-07-29T04:25:18;1.70;;;1.33;;
6376;SDS011;3221;48.858;10.128;2023-07-29T04:27:45;2.27;;;1.63;;
6376;SDS011;3221;48.858;10.128;2023-07-29T04:30:12;3.17;;;1.20;;
6376;SDS011;3221;48.858;10.128;2023-07-29T04:32:39;1.60;;;1.50;;
6376;SDS011;3221;48.858;10.128;2023-07-29T04:35:06;1.40;;;1.30;;
6376;SDS011;3221;48.858;10.128;2023-07-29T04:37:36;1.37;;;1.27;;
6376;SDS011;3221;48.858;10.128;2023-07-29T04:40:03;1.50;;;1.40;;
6376;SDS011;3221;48.858;10.128;2023-07-29T04:42:30;9.37;;;2.00;;
6376;SDS011;3221;48.858;10.128;2023-07-29T04:44:57;1.57;;;1.47;;
6376;SDS011;3221;48.858;10.128;2023-07-29T04:47:24;2.23;;;1.93;;
6376;SDS011;3221;48.858;10.128;2023-07-29T04:49:52;2.70;;;1.73;;
6376;SDS011;3221;48.858;10.128;2023-07-29T04:52:20;2.87;;;1.90;;
6376;SDS011;3221;48.858;10.128;2023-07-29T04:54:48;2.03;;;1.80;;
6376;SDS011;3221;48.858;10.128;2023-07-29T04:57:15;3.57;;;1.90;;
6376;SDS011;3221;48.858;10.128;2023-07-29T04:59:42;2.90;;;2.10;;
6376;SDS011;3221;48.858;10.128;2023-07-29T05:02:09;3.40;;;2.23;;
6376;SDS011;3221;48.858;10.128;2023-07-29T05:04:36;4.40;;;2.30;;
6376;SDS011;3221;48.858;10.128;2023-07-29T05:07:03;2.90;;;2.60;;
6376;SDS011;3221;48.858;10.128;2023-07-29T05:09:30;4.80;;;2.43;;
6376;SDS011;3221;48.858;10.128;2023-07-29T05:12:00;2.53;;;2.33;;
6376;SDS011;3221;48.858;10.128;2023-07-29T05:14:27;3.23;;;2.30;;
6376;SDS011;3221;48.858;10.128;2023-07-29T05:16:54;3.67;;;2.30;;
6376;SDS011;3221;48.858;10.128;2023-07-29T05:19:21;6.80;;;4.13;;
6376;SDS011;3221;48.858;10.128;2023-07-29T05:21:49;4.57;;;2.70;;
6376;SDS011;3221;48.858;10.128;2023-07-29T05:24:16;5.60;;;3.77;;
6376;SDS011;3221;48.858;10.128;2023-07-29T05:26:43;6.27;;;4.73;;
6376;SDS011;3221;48.858;10.128;2023-07-29T05:29:10;7.20;;;4.60;;
6376;SDS011;3221;48.858;10.128;2023-07-29T05:31:37;6.03;;;4.30;;
6376;SDS011;3221;48.858;10.128;2023-07-29T05:34:04;5.57;;;4.07;;
6376;SDS011;3221;48.858;10.128;2023-07-29T05:36:32;5.63;;;3.40;;
6376;SDS011;3221;48.858;10.128;2023-07-29T05:38:59;4.80;;;2.83;;
6376;SDS011;3221;48.858;10.128;2023-07-29T05:41:26;3.07;;;2.40;;
6376;SDS011;3221;48.858;10.128;2023-07-29T05:43:54;10.93;;;3.20;;
6376;SDS011;3221;48.858;10.128;2023-07-29T05:46:21;3.23;;;2.53;;
6376;SDS011;3221;48.858;10.128;2023-07-29T05:48:48;4.13;;;2.30;;
6376;SDS011;3221;48.858;10.128;2023-07-29T05:51:16;2.93;;;2.63;;
6376;SDS011;3221;48.858;10.128;2023-07-29T05:53:43;3.63;;;2.70;;
6376;SDS011;3221;48.858;10.128;2023-07-29T05:56:10;4.60;;;2.47;;
6376;SDS011;3221;48.858;10.128;2023-07-29T05:58:37;5.47;;;2.97;;
6376;SDS011;3221;48.858;10.128;2023-07-29T06:01:06;4.20;;;2.70;;
6376;SDS011;3221;48.858;10.128;2023-07-29T06:03:33;4.70;;;2.63;;
6376;SDS011;3221;48.858;10.128;2023-07-29T06:06:00;3.53;;;2.83;;
6376;SDS011;3221;48.858;10.128;2023-07-29T06:08:27;4.03;;;2.83;;
6376;SDS011;3221;48.858;10.128;2023-07-29T06:10:55;4.93;;;2.90;;
6376;SDS011;3221;48.858;10.128;2023-07-29T06:13:22;4.23;;;2.70;;
6376;SDS011;3221;48.858;10.128;2023-07-29T06:15:49;4.87;;;2.93;;
6376;SDS011;3221;48.858;10.128;2023-07-29T06:18:16;4.90;;;2.63;;
6376;SDS011;3221;48.858;10.128;2023-07-29T06:20:43;4.73;;;2.83;;
6376;SDS011;3221;48.858;10.128;2023-07-29T06:23:10;3.00;;;2.70;;
6376;SDS011;3221;48.858;10.128;2023-07-29T06:25:37;2.70;;;2.50;;
6376;SDS011;3221;48.858;10.128;2023-07-29T06:28:04;4.30;;;2.60;;
6376;SDS011;3221;48.858;10.128;2023-07-29T06:30:31;2.70;;;2.50;;
6376;SDS011;3221;48.858;10.128;2023-07-29T06:32:58;4.57;;;2.63;;
6376;SDS011;3221;48.858;10.128;2023-07-29T06:35:25;2.93;;;2.63;;
6376;SDS011;3221;48.858;10.128;2023-07-29T06:37:52;3.57;;;2.40;;
6376;SDS011;3221;48.858;10.128;2023-07-29T06:40:19;2.50;;;2.30;;
6376;SDS011;3221;48.858;10.128;2023-07-29T06:42:46;4.00;;;2.47;;
6376;SDS011;3221;48.858;10.128;2023-07-29T06:45:13;3.00;;;2.07;;
6376;SDS011;3221;48.858;10.128;2023-07-29T06:47:41;3.20;;;2.40;;
6376;SDS011;3221;48.858;10.128;2023-07-29T06:50:08;4.70;;;2.40;;
6376;SDS011;3221;48.858;10.128;2023-07-29T06:52:36;2.63;;;2.37;;
6376;SDS011;3221;48.858;10.128;2023-07-29T06:55:04;2.20;;;2.00;;
6376;SDS011;3221;48.858;10.128;2023-07-29T06:57:31;3.03;;;2.23;;
6376;SDS011;3221;48.858;10.128;2023-07-29T06:59:58;2.60;;;2.40;;
6376;SDS011;3221;48.858;10.128;2023-07-29T07:02:25;2.30;;;1.80;;
6376;SDS011;3221;48.858;10.128;2023-07-29T07:04:52;2.30;;;2.10;;
6376;SDS011;3221;48.858;10.128;2023-07-29T07:07:19;2.20;;;2.00;;
6376;SDS011;3221;48.858;10.128;2023-07-29T07:09:46;2.40;;;2.20;;
6376;SDS011;3221;48.858;10.128;2023-07-29T07:12:13;4.00;;;2.30;;
6376;SDS011;3221;48.858;10.128;2023-07-29T07:14:40;2.10;;;1.97;;
6376;SDS011;3221;48.858;10.128;2023-07-29T07:17:07;2.30;;;2.10;;
6376;SDS011;3221;48.858;10.128;2023-07-29T07:19:38;4.40;;;2.20;;
6376;SDS011;3221;48.858;10.128;2023-07-29T07:22:05;2.23;;;2.00;;
6376;SDS011;3221;48.858;10.128;2023-07-29T07:24:32;2.30;;;2.00;;
6376;SDS011;3221;48.858;10.128;2023-07-29T07:26:59;2.37;;;2.17;;
6376;SDS011;3221;48.858;10.128;2023-07-29T07:29:26;3.07;;;2.30;;
6376;SDS011;3221;48.858;10.128;2023-07-29T07:31:53;2.10;;;2.00;;
6376;SDS011;3221;48.858;10.128;2023-07-29T07:34:20;2.30;;;2.10;;
6376;SDS011;3221;48.858;10.128;2023-07-29T07:36:49;2.10;;;2.00;;
6376;SDS011;3221;48.858;10.128;2023-07-29T07:39:16;3.37;;;2.40;;
6376;SDS011;3221;48.858;10.128;2023-07-29T07:41:43;2.37;;;1.90;;
6376;SDS011;3221;48.858;10.128;2023-07-29T07:44:10;3.03;;;1.80;;
6376;SDS011;3221;48.858;10.128;2023-07-29T07:46:41;2.10;;;1.77;;
6376;SDS011;3221;48.858;10.128;2023-07-29T07:49:08;2.20;;;2.00;;
6376;SDS011;3221;48.858;10.128;2023-07-29T07:51:35;2.20;;;2.00;;
6376;SDS011;3221;48.858;10.128;2023-07-29T07:54:02;2.63;;;2.00;;
6376;SDS011;3221;48.858;10.128;2023-07-29T07:56:29;2.00;;;1.90;;
6376;SDS011;3221;48.858;10.128;2023-07-29T07:58:56;2.30;;;2.10;;
6376;SDS011;3221;48.858;10.128;2023-07-29T08:01:23;2.50;;;2.27;;
6376;SDS011;3221;48.858;10.128;2023-07-29T08:03:50;2.50;;;2.30;;
6376;SDS011;3221;48.858;10.128;2023-07-29T08:06:17;2.43;;;2.23;;
6376;SDS011;3221;48.858;10.128;2023-07-29T08:08:44;4.23;;;2.50;;
6376;SDS011;3221;48.858;10.128;2023-07-29T08:11:11;3.67;;;2.90;;
6376;SDS011;3221;48.858;10.128;2023-07-29T08:13:38;2.87;;;2.53;;
6376;SDS011;3221;48.858;10.128;2023-07-29T08:16:04;3.40;;;2.57;;
6376;SDS011;3221;48.858;10.128;2023-07-29T08:18:31;3.00;;;2.40;;
6376;SDS011;3221;48.858;10.128;2023-07-29T08:20:59;4.70;;;2.20;;
6376;SDS011;3221;48.858;10.128;2023-07-29T08:23:33;4.13;;;2.20;;
6376;SDS011;3221;48.858;10.128;2023-07-29T08:26:02;3.10;;;1.97;;
6376;SDS011;3221;48.858;10.128;2023-07-29T08:28:33;7.53;;;2.30;;
6376;SDS011;3221;48.858;10.128;2023-07-29T08:31:04;2.27;;;2.03;;
6376;SDS011;3221;48.858;10.128;2023-07-29T08:33:31;3.33;;;2.10;;
6376;SDS011;3221;48.858;10.128;2023-07-29T08:36:02;2.10;;;1.53;;
6376;SDS011;3221;48.858;10.128;2023-07-29T08:38:29;2.43;;;1.97;;
6376;SDS011;3221;48.858;10.128;2023-07-29T08:46:51;2.57;;;1.67;;
6376;SDS011;3221;48.858;10.128;2023-07-29T08:49:20;1.73;;;1.50;;
6376;SDS011;3221;48.858;10.128;2023-07-29T08:51:49;2.87;;;1.50;;
6376;SDS011;3221;48.858;10.128;2023-07-29T08:54:19;5.80;;;3.70;;
6376;SDS011;3221;48.858;10.128;2023-07-29T08:56:46;1.40;;;1.30;;
6376;SDS011;3221;48.858;10.128;2023-07-29T08:59:13;1.97;;;1.50;;
6376;SDS011;3221;48.858;10.128;2023-07-29T09:01:42;2.30;;;1.50;;
6376;SDS011;3221;48.858;10.128;2023-07-29T09:04:09;2.40;;;1.20;;
6376;SDS011;3221;48.858;10.128;2023-07-29T09:06:36;1.43;;;1.33;;
6376;SDS011;3221;48.858;10.128;2023-07-29T09:09:07;1.63;;;1.40;;
6376;SDS011;3221;48.858;10.128;2023-07-29T09:11:34;1.50;;;1.40;;
6376;SDS011;3221;48.858;10.128;2023-07-29T09:14:01;1.30;;;1.20;;
6376;SDS011;3221;48.858;10.128;2023-07-29T09:16:28;2.40;;;1.70;;
6376;SDS011;3221;48.858;10.128;2023-07-29T09:18:56;1.60;;;1.50;;
6376;SDS011;3221;48.858;10.128;2023-07-29T09:21:28;4.20;;;1.47;;
6376;SDS011;3221;48.858;10.128;2023-07-29T09:23:55;1.60;;;1.50;;
6376;SDS011;3221;48.858;10.128;2023-07-29T09:26:25;1.90;;;1.70;;
6376;SDS011;3221;48.858;10.128;2023-07-29T09:28:54;1.80;;;1.70;;
6376;SDS011;3221;48.858;10.128;2023-07-29T09:31:23;2.30;;;1.87;;
6376;SDS011;3221;48.858;10.128;2023-07-29T09:34:03;2.30;;;1.60;;
6376;SDS011;3221;48.858;10.128;2023-07-29T09:36:32;1.97;;;1.57;;
6376;SDS011;3221;48.858;10.128;2023-07-29T09:39:01;2.07;;;1.80;;
6376;SDS011;3221;48.858;10.128;2023-07-29T09:41:28;1.83;;;1.70;;
6376;SDS011;3221;48.858;10.128;2023-07-29T09:43:59;2.77;;;2.00;;
6376;SDS011;3221;48.858;10.128;2023-07-29T09:46:32;3.20;;;2.17;;
6376;SDS011;3221;48.858;10.128;2023-07-29T09:49:02;2.33;;;2.13;;
6376;SDS011;3221;48.858;10.128;2023-07-29T09:51:30;2.00;;;1.90;;
6376;SDS011;3221;48.858;10.128;2023-07-29T09:53:57;1.77;;;1.67;;
6376;SDS011;3221;48.858;10.128;2023-07-29T09:56:29;2.13;;;1.70;;
6376;SDS011;3221;48.858;10.128;2023-07-29T09:58:56;2.30;;;1.70;;
6376;SDS011;3221;48.858;10.128;2023-07-29T10:01:23;2.33;;;2.10;;
6376;SDS011;3221;48.858;10.128;2023-07-29T10:03:51;1.83;;;1.73;;
6376;SDS011;3221;48.858;10.128;2023-07-29T10:06:18;1.60;;;1.50;;
6376;SDS011;3221;48.858;10.128;2023-07-29T10:08:46;2.07;;;1.50;;
6376;SDS011;3221;48.858;10.128;2023-07-29T10:11:15;2.73;;;1.70;;
6376;SDS011;3221;48.858;10.128;2023-07-29T10:13:44;2.20;;;2.00;;
6376;SDS011;3221;48.858;10.128;2023-07-29T10:16:32;2.30;;;2.10;;
6376;SDS011;3221;48.858;10.128;2023-07-29T10:19:01;3.23;;;2.30;;
6376;SDS011;3221;48.858;10.128;2023-07-29T10:21:28;2.03;;;1.80;;
6376;SDS011;3221;48.858;10.128;2023-07-29T10:23:56;4.33;;;2.77;;
6376;SDS011;3221;48.858;10.128;2023-07-29T10:26:27;4.73;;;2.63;;
6376;SDS011;3221;48.858;10.128;2023-07-29T10:28:56;2.60;;;2.40;;
6376;SDS011;3221;48.858;10.128;2023-07-29T10:31:31;3.27;;;2.10;;
6376;SDS011;3221;48.858;10.128;2023-07-29T10:33:59;2.33;;;2.00;;
6376;SDS011;3221;48.858;10.128;2023-07-29T10:36:27;2.53;;;2.03;;
6376;SDS011;3221;48.858;10.128;2023-07-29T10:38:55;2.53;;;2.10;;
6376;SDS011;3221;48.858;10.128;2023-07-29T10:41:22;1.90;;;1.80;;
6376;SDS011;3221;48.858;10.128;2023-07-29T10:43:49;3.07;;;2.23;;
6376;SDS011;3221;48.858;10.128;2023-07-29T10:53:57;2.40;;;2.20;;
6376;SDS011;3221;48.858;10.128;2023-07-29T10:56:31;2.77;;;2.23;;
6376;SDS011;3221;48.858;10.128;2023-07-29T11:01:39;2.60;;;2.10;;
6376;SDS011;3221;48.858;10.128;2023-07-29T11:20:20;3.40;;;2.10;;
6376;SDS011;3221;48.858;10.128;2023-07-29T11:22:49;3.50;;;1.70;;
6376;SDS011;3221;48.858;10.128;2023-07-29T11:25:16;4.17;;;1.53;;
6376;SDS011;3221;48.858;10.128;2023-07-29T11:27:45;9.13;;;2.00;;
6376;SDS011;3221;48.858;10.128;2023-07-29T11:30:14;3.67;;;1.63;;
6376;SDS011;3221;48.858;10.128;2023-07-29T11:32:43;6.03;;;1.50;;
6376;SDS011;3221;48.858;10.128;2023-07-29T11:35:14;4.67;;;1.50;;
6376;SDS011;3221;48.858;10.128;2023-07-29T11:37:46;4.87;;;1.30;;
6376;SDS011;3221;48.858;10.128;2023-07-29T11:40:21;1.30;;;1.00;;
6376;SDS011;3221;48.858;10.128;2023-07-29T11:42:49;1.13;;;0.80;;
6376;SDS011;3221;48.858;10.128;2023-07-29T11:45:17;2.53;;;0.93;;
6376;SDS011;3221;48.858;10.128;2023-07-29T11:47:45;2.20;;;1.00;;
6376;SDS011;3221;48.858;10.128;2023-07-29T11:50:13;2.57;;;0.90;;
6376;SDS011;3221;48.858;10.128;2023-07-29T11:52:42;0.90;;;0.80;;
6376;SDS011;3221;48.858;10.128;2023-07-29T11:55:10;3.53;;;1.10;;
6376;SDS011;3221;48.858;10.128;2023-07-29T11:57:38;1.77;;;0.90;;
6376;SDS011;3221;48.858;10.128;2023-07-29T12:00:07;1.03;;;0.93;;
6376;SDS011;3221;48.858;10.128;2023-07-29T12:02:37;1.40;;;1.10;;
6376;SDS011;3221;48.858;10.128;2023-07-29T12:05:05;2.63;;;1.30;;
6376;SDS011;3221;48.858;10.128;2023-07-29T12:07:33;1.27;;;1.17;;
6376;SDS011;3221;48.858;10.128;2023-07-29T12:10:01;1.77;;;1.17;;
6376;SDS011;3221;48.858;10.128;2023-07-29T12:12:29;1.00;;;1.00;;
6376;SDS011;3221;48.858;10.128;2023-07-29T12:14:57;2.07;;;1.10;;
6376;SDS011;3221;48.858;10.128;2023-07-29T12:17:24;1.20;;;1.10;;
6376;SDS011;3221;48.858;10.128;2023-07-29T12:19:53;1.37;;;1.27;;
6376;SDS011;3221;48.858;10.128;2023-07-29T12:22:21;1.40;;;1.30;;
6376;SDS011;3221;48.858;10.128;2023-07-29T12:24:49;1.27;;;1.03;;
6376;SDS011;3221;48.858;10.128;2023-07-29T12:27:19;1.77;;;1.67;;
6376;SDS011;3221;48.858;10.128;2023-07-29T12:29:48;1.53;;;1.30;;
6376;SDS011;3221;48.858;10.128;2023-07-29T12:32:18;1.67;;;1.57;;
6376;SDS011;3221;48.858;10.128;2023-07-29T12:34:45;2.50;;;1.67;;
6376;SDS011;3221;48.858;10.128;2023-07-29T12:37:12;2.30;;;1.40;;
6376;SDS011;3221;48.858;10.128;2023-07-29T12:39:42;1.47;;;1.37;;
6376;SDS011;3221;48.858;10.128;2023-07-29T12:42:09;2.70;;;1.80;;
6376;SDS011;3221;48.858;10.128;2023-07-29T12:44:37;1.73;;;1.63;;
6376;SDS011;3221;48.858;10.128;2023-07-29T12:47:05;2.60;;;1.80;;
6376;SDS011;3221;48.858;10.128;2023-07-29T12:49:34;1.70;;;1.60;;
6376;SDS011;3221;48.858;10.128;2023-07-29T12:52:02;2.17;;;2.00;;
6376;SDS011;3221;48.858;10.128;2023-07-29T12:54:29;2.10;;;1.90;;
6376;SDS011;3221;48.858;10.128;2023-07-29T12:56:55;3.20;;;2.00;;
6376;SDS011;3221;48.858;10.128;2023-07-29T12:59:22;1.53;;;1.43;;
6376;SDS011;3221;48.858;10.128;2023-07-29T13:01:49;1.80;;;1.70;;
6376;SDS011;3221;48.858;10.128;2023-07-29T13:04:16;2.53;;;2.10;;
6376;SDS011;3221;48.858;10.128;2023-07-29T13:06:43;2.03;;;1.83;;
6376;SDS011;3221;48.858;10.128;2023-07-29T13:09:10;3.53;;;1.90;;
6376;SDS011;3221;48.858;10.128;2023-07-29T13:11:37;2.03;;;1.83;;
6376;SDS011;3221;48.858;10.128;2023-07-29T13:14:04;2.20;;;1.87;;
6376;SDS011;3221;48.858;10.128;2023-07-29T13:16:31;1.87;;;1.73;;
6376;SDS011;3221;48.858;10.128;2023-07-29T13:18:58;2.10;;;1.90;;
6376;SDS011;3221;48.858;10.128;2023-07-29T13:21:25;1.77;;;1.67;;
6376;SDS011;3221;48.858;10.128;2023-07-29T13:23:52;2.00;;;1.80;;
6376;SDS011;3221;48.858;10.128;2023-07-29T13:26:18;2.33;;;2.13;;
6376;SDS011;3221;48.858;10.128;2023-07-29T13:28:45;2.67;;;1.80;;
6376;SDS011;3221;48.858;10.128;2023-07-29T13:31:12;2.50;;;1.80;;
6376;SDS011;3221;48.858;10.128;2023-07-29T13:33:39;2.20;;;1.93;;
6376;SDS011;3221;48.858;10.128;2023-07-29T13:36:06;2.20;;;2.00;;
6376;SDS011;3221;48.858;10.128;2023-07-29T13:38:35;5.77;;;2.40;;
6376;SDS011;3221;48.858;10.128;2023-07-29T13:41:02;2.73;;;2.53;;
6376;SDS011;3221;48.858;10.128;2023-07-29T13:43:29;3.20;;;2.50;;
6376;SDS011;3221;48.858;10.128;2023-07-29T13:45:56;3.50;;;2.53;;
6376;SDS011;3221;48.858;10.128;2023-07-29T13:48:23;3.43;;;2.60;;
6376;SDS011;3221;48.858;10.128;2023-07-29T13:50:51;2.67;;;2.43;;
6376;SDS011;3221;48.858;10.128;2023-07-29T13:53:18;4.23;;;2.43;;
6376;SDS011;3221;48.858;10.128;2023-07-29T13:55:45;2.70;;;2.50;;
6376;SDS011;3221;48.858;10.128;2023-07-29T13:58:12;2.37;;;2.17;;
6376;SDS011;3221;48.858;10.128;2023-07-29T14:00:39;3.03;;;2.73;;
6376;SDS011;3221;48.858;10.128;2023-07-29T14:03:06;2.22;;;2.03;;
6376;SDS011;3221;48.858;10.128;2023-07-29T14:05:33;2.25;;;2.05;;
6376;SDS011;3221;48.858;10.128;2023-07-29T14:08:00;4.20;;;2.37;;
6376;SDS011;3221;48.858;10.128;2023-07-29T14:10:27;2.25;;;2.05;;
6376;SDS011;3221;48.858;10.128;2023-07-29T14:12:54;3.70;;;2.22;;
6376;SDS011;3221;48.858;10.128;2023-07-29T14:15:21;2.30;;;2.10;;
6376;SDS011;3221;48.858;10.128;2023-07-29T14:17:48;2.78;;;2.25;;
6376;SDS011;3221;48.858;10.128;2023-07-29T14:20:15;3.15;;;2.85;;
6376;SDS011;3221;48.858;10.128;2023-07-29T14:22:43;4.88;;;3.60;;
6376;SDS011;3221;48.858;10.128;2023-07-29T14:25:10;4.97;;;3.15;;
6376;SDS011;3221;48.858;10.128;2023-07-29T14:27:37;2.90;;;2.50;;
6376;SDS011;3221;48.858;10.128;2023-07-29T14:30:04;3.65;;;2.47;;
6376;SDS011;3221;48.858;10.128;2023-07-29T14:32:32;2.75;;;2.15;;
6376;SDS011;3221;48.858;10.128;2023-07-29T14:34:59;2.60;;;2.40;;
6376;SDS011;3221;48.858;10.128;2023-07-29T14:37:30;3.15;;;2.45;;
6376;SDS011;3221;48.858;10.128;2023-07-29T14:39:58;3.45;;;3.08;;
6376;SDS011;3221;48.858;10.128;2023-07-29T14:42:25;3.40;;;3.10;;
6376;SDS011;3221;48.858;10.128;2023-07-29T14:44:53;3.35;;;2.83;;
6376;SDS011;3221;48.858;10.128;2023-07-29T14:47:20;3.88;;;3.15;;
6376;SDS011;3221;48.858;10.128;2023-07-29T14:49:47;3.33;;;2.53;;
6376;SDS011;3221;48.858;10.128;2023-07-29T14:52:14;2.70;;;2.50;;
6376;SDS011;3221;48.858;10.128;2023-07-29T14:54:42;3.55;;;2.50;;
6376;SDS011;3221;48.858;10.128;2023-07-29T14:57:09;2.13;;;1.92;;
6376;SDS011;3221;48.858;10.128;2023-07-29T14:59:37;2.97;;;2.28;;
6376;SDS011;3221;48.858;10.128;2023-07-29T15:02:05;2.90;;;2.22;;
6376;SDS011;3221;48.858;10.128;2023-07-29T15:04:32;2.38;;;2.20;;
6376;SDS011;3221;48.858;10.128;2023-07-29T15:06:59;2.88;;;2.25;;
6376;SDS011;3221;48.858;10.128;2023-07-29T15:09:26;2.80;;;2.28;;
6376;SDS011;3221;48.858;10.128;2023-07-29T15:11:53;2.30;;;2.10;;
6376;SDS011;3221;48.858;10.128;2023-07-29T15:14:24;4.05;;;2.60;;
6376;SDS011;3221;48.858;10.128;2023-07-29T15:16:51;3.30;;;2.47;;
6376;SDS011;3221;48.858;10.128;2023-07-29T15:19:18;2.50;;;2.10;;
6376;SDS011;3221;48.858;10.128;2023-07-29T15:21:44;3.63;;;2.30;;
6376;SDS011;3221;48.858;10.128;2023-07-29T15:24:12;4.53;;;2.35;;
6376;SDS011;3221;48.858;10.128;2023-07-29T15:26:40;3.97;;;2.28;;
6376;SDS011;3221;48.858;10.128;2023-07-29T15:29:07;2.30;;;2.10;;
6376;SDS011;3221;48.858;10.128;2023-07-29T15:31:35;2.50;;;2.30;;
6376;SDS011;3221;48.858;10.128;2023-07-29T15:34:02;2.85;;;2.50;;
6376;SDS011;3221;48.858;10.128;2023-07-29T15:36:29;2.63;;;2.35;;
6376;SDS011;3221;48.858;10.128;2023-07-29T15:38:56;3.03;;;2.72;;
6376;SDS011;3221;48.858;10.128;2023-07-29T15:41:23;3.10;;;2.80;;
6376;SDS011;3221;48.858;10.128;2023-07-29T15:43:50;3.80;;;3.05;;
6376;SDS011;3221;48.858;10.128;2023-07-29T15:46:17;3.00;;;2.70;;
6376;SDS011;3221;48.858;10.128;2023-07-29T15:48:44;2.72;;;2.53;;
6376;SDS011;3221;48.858;10.128;2023-07-29T15:51:11;2.50;;;2.30;;
6376;SDS011;3221;48.858;10.128;2023-07-29T15:53:38;2.55;;;2.35;;
6376;SDS011;3221;48.858;10.128;2023-07-29T15:56:05;3.42;;;2.58;;
6376;SDS011;3221;48.858;10.128;2023-07-29T15:58:32;3.50;;;2.60;;
6376;SDS011;3221;48.858;10.128;2023-07-29T16:00:59;2.35;;;2.15;;
6376;SDS011;3221;48.858;10.128;2023-07-29T16:03:25;2.83;;;2.30;;
6376;SDS011;3221;48.858;10.128;2023-07-29T16:05:52;2.55;;;2.35;;
6376;SDS011;3221;48.858;10.128;2023-07-29T16:08:19;5.22;;;4.38;;
6376;SDS011;3221;48.858;10.128;2023-07-29T16:10:46;2.60;;;2.40;;
6376;SDS011;3221;48.858;10.128;2023-07-29T16:13:13;2.60;;;2.40;;
6376;SDS011;3221;48.858;10.128;2023-07-29T16:15:45;2.97;;;2.63;;
6376;SDS011;3221;48.858;10.128;2023-07-29T16:18:12;3.78;;;2.65;;
6376;SDS011;3221;48.858;10.128;2023-07-29T16:20:39;2.72;;;2.50;;